createdAt,value
2023-05-22T00:02:43.059Z,20.23
2023-05-22T00:07:46.254Z,20.15
2023-05-22T00:12:48.350Z,20.08
2023-05-22T00:17:53.968Z,19.99
2023-05-22T00:22:57.038Z,19.93
2023-05-22T00:27:58.907Z,19.82
2023-05-22T00:33:00.941Z,19.66
2023-05-22T00:38:05.548Z,19.54
2023-05-22T00:43:08.958Z,19.54
2023-05-22T00:48:12.573Z,19.65
2023-05-22T00:53:15.532Z,19.76
2023-05-22T00:58:18.595Z,19.78
2023-05-22T01:03:27.081Z,19.81
2023-05-22T01:08:29.698Z,19.82
2023-05-22T01:14:08.524Z,19.77
2023-05-22T01:19:48.012Z,19.66
2023-05-22T01:24:59.032Z,19.52
2023-05-22T01:30:12.962Z,19.34
2023-05-22T01:35:19.188Z,19.26
2023-05-22T01:40:21.733Z,19.20
2023-05-22T01:45:24.208Z,19.19
2023-05-22T01:50:26.742Z,19.18
2023-05-22T01:55:45.382Z,19.15
2023-05-22T02:00:51.705Z,19.02
2023-05-22T02:05:55.705Z,18.86
2023-05-22T02:10:59.478Z,18.80
2023-05-22T02:16:01.650Z,18.72
2023-05-22T02:21:08.577Z,18.62
2023-05-22T02:26:10.690Z,18.55
2023-05-22T02:31:12.595Z,18.52
2023-05-22T02:36:15.636Z,18.46
2023-05-22T02:41:18.465Z,18.39
2023-05-22T02:46:20.938Z,18.37
2023-05-22T02:51:23.350Z,18.37
2023-05-22T02:56:27.969Z,18.41
2023-05-22T03:01:31.323Z,18.43
2023-05-22T03:06:35.360Z,18.45
2023-05-22T03:11:37.710Z,18.45
2023-05-22T03:16:39.866Z,18.45
2023-05-22T03:21:46.644Z,18.45
2023-05-22T03:26:48.583Z,18.48
2023-05-22T03:31:57.220Z,18.46
2023-05-22T03:37:00.595Z,18.46
2023-05-22T03:42:02.636Z,18.43
2023-05-22T03:47:05.111Z,18.48
2023-05-22T03:52:09.697Z,18.56
2023-05-22T03:57:12.493Z,18.62
2023-05-22T04:02:16.899Z,18.68
2023-05-22T04:07:20.424Z,18.76
2023-05-22T04:12:22.741Z,18.79
2023-05-22T04:17:31.136Z,18.83
2023-05-22T04:22:33.345Z,18.92
2023-05-22T04:27:35.702Z,18.99
2023-05-22T04:32:38.398Z,19.05
2023-05-22T04:37:45.669Z,19.15
2023-05-22T04:42:47.573Z,19.27
2023-05-22T04:47:49.489Z,19.19
2023-05-22T04:52:51.467Z,19.22
2023-05-22T04:57:53.730Z,19.27
2023-05-22T05:02:57.557Z,19.30
2023-05-22T05:08:00.227Z,19.40
2023-05-22T05:13:02.599Z,19.52
2023-05-22T05:18:04.703Z,19.66
2023-05-22T05:23:06.618Z,19.81
2023-05-22T05:28:12.936Z,19.94
2023-05-22T05:33:16.629Z,20.04
2023-05-22T05:38:41.659Z,20.14
2023-05-22T05:43:44.871Z,20.28
2023-05-22T05:48:47.039Z,20.38
2023-05-22T05:53:50.085Z,20.51
2023-05-22T05:58:52.650Z,20.65
2023-05-22T06:04:15.580Z,20.81
2023-05-22T06:09:20.626Z,20.91
2023-05-22T06:14:42.780Z,21.05
2023-05-22T06:19:45.095Z,21.24
2023-05-22T06:24:48.430Z,21.41
2023-05-22T06:29:55.271Z,21.55
2023-05-22T06:34:59.877Z,21.77
2023-05-22T06:40:04.127Z,22.06
2023-05-22T06:45:15.014Z,22.33
2023-05-22T06:50:27.129Z,22.56
2023-05-22T06:55:29.826Z,22.77
2023-05-22T07:00:40.879Z,22.99
2023-05-22T07:05:49.261Z,23.14
2023-05-22T07:10:51.805Z,23.31
2023-05-22T07:15:53.708Z,23.53
2023-05-22T07:20:56.093Z,23.86
2023-05-22T07:25:58.756Z,24.19
2023-05-22T07:31:07.520Z,24.46
2023-05-22T07:36:09.548Z,24.73
2023-05-22T07:41:14.302Z,24.94
2023-05-22T07:46:16.563Z,25.09
2023-05-22T07:51:31.000Z,25.30
2023-05-22T07:56:32.948Z,25.54
2023-05-22T08:01:37.604Z,25.72
2023-05-22T08:06:40.084Z,25.82
2023-05-22T08:11:42.865Z,25.97
2023-05-22T08:16:44.996Z,26.07
2023-05-22T08:21:46.857Z,26.27
2023-05-22T08:26:48.802Z,26.45
2023-05-22T08:31:52.389Z,26.49
2023-05-22T08:36:54.412Z,26.53
2023-05-22T08:41:56.381Z,26.67
2023-05-22T08:47:01.100Z,26.85
2023-05-22T08:52:21.885Z,27.00
2023-05-22T08:57:24.414Z,27.07
2023-05-22T09:02:27.220Z,27.16
2023-05-22T09:07:30.081Z,27.28
2023-05-22T09:12:32.478Z,27.51
2023-05-22T09:17:34.521Z,27.69
2023-05-22T09:22:40.100Z,27.92
2023-05-22T09:27:46.309Z,28.14
2023-05-22T09:32:51.155Z,28.40
2023-05-22T09:37:53.111Z,28.70
2023-05-22T09:42:55.094Z,28.88
2023-05-22T09:47:58.074Z,29.00
2023-05-22T09:53:03.229Z,29.09
2023-05-22T09:58:09.316Z,29.31
2023-05-22T10:03:17.532Z,29.48
2023-05-22T10:08:26.364Z,29.63
2023-05-22T10:13:28.898Z,29.76
2023-05-22T10:18:30.855Z,29.59
2023-05-22T10:23:32.849Z,29.34
2023-05-22T10:29:07.587Z,29.22
2023-05-22T10:34:15.708Z,29.21
2023-05-22T10:39:45.454Z,29.20
2023-05-22T10:44:48.980Z,29.33
2023-05-22T10:50:04.100Z,29.43
2023-05-22T10:55:08.762Z,29.35
2023-05-22T11:00:13.392Z,29.34
2023-05-22T11:05:19.121Z,29.33
2023-05-22T11:10:47.825Z,29.34
2023-05-22T11:15:49.800Z,29.21
2023-05-22T11:20:53.934Z,29.17
2023-05-22T11:25:55.839Z,29.24
2023-05-22T11:30:58.026Z,29.71
2023-05-22T11:36:02.124Z,29.80
2023-05-22T11:41:04.104Z,29.74
2023-05-22T11:46:15.397Z,29.77
2023-05-22T11:51:20.769Z,29.80
2023-05-22T11:56:23.163Z,29.85
2023-05-22T12:01:25.070Z,29.96
2023-05-22T12:06:27.083Z,30.18
2023-05-22T12:11:29.140Z,30.20
2023-05-22T12:16:37.273Z,30.04
2023-05-22T12:21:41.076Z,30.13
2023-05-22T12:26:50.197Z,30.27
2023-05-22T12:31:52.167Z,30.33
2023-05-22T12:36:54.112Z,30.34
2023-05-22T12:41:56.047Z,30.41
2023-05-22T12:46:58.249Z,30.50
2023-05-22T12:52:00.302Z,30.61
2023-05-22T12:57:02.609Z,30.61
2023-05-22T13:02:06.014Z,30.63
2023-05-22T13:07:08.365Z,30.57
2023-05-22T13:12:11.440Z,30.44
2023-05-22T13:17:13.815Z,30.53
2023-05-22T13:22:15.999Z,30.64
2023-05-22T13:27:19.273Z,30.63
2023-05-22T13:32:21.281Z,30.68
2023-05-22T13:37:23.680Z,30.73
2023-05-22T13:42:26.179Z,30.70
2023-05-22T13:47:28.517Z,30.73
2023-05-22T13:52:30.487Z,30.72
2023-05-22T13:57:32.375Z,30.67
2023-05-22T14:02:34.403Z,30.61
2023-05-22T14:07:36.381Z,30.50
2023-05-22T14:12:38.466Z,30.48
2023-05-22T14:17:40.604Z,30.44
2023-05-22T14:22:56.028Z,30.42
2023-05-22T14:27:59.381Z,30.32
2023-05-22T14:33:01.439Z,30.29
2023-05-22T14:38:03.618Z,30.22
2023-05-22T14:43:05.860Z,30.16
2023-05-22T14:48:11.018Z,30.12
2023-05-22T14:53:13.256Z,30.07
2023-05-22T14:58:15.237Z,29.95
2023-05-22T15:03:19.045Z,29.81
2023-05-22T15:08:21.269Z,29.77
2023-05-22T15:13:23.133Z,29.74
2023-05-22T15:18:27.089Z,29.57
2023-05-22T15:23:29.225Z,29.48
2023-05-22T15:28:31.152Z,29.38
2023-05-22T15:33:34.436Z,29.27
2023-05-22T15:38:36.286Z,29.15
2023-05-22T15:43:38.180Z,29.02
2023-05-22T15:48:40.177Z,28.94
2023-05-22T15:53:42.070Z,28.86
2023-05-22T15:58:44.037Z,28.73
2023-05-22T16:03:46.120Z,28.61
2023-05-22T16:08:48.061Z,28.54
2023-05-22T16:13:50.299Z,28.41
2023-05-22T16:18:52.291Z,28.27
2023-05-22T16:23:54.258Z,28.16
2023-05-22T16:28:56.169Z,28.08
2023-05-22T16:33:58.066Z,28.00
2023-05-22T16:39:00.004Z,27.94
2023-05-22T16:44:01.917Z,27.90
2023-05-22T16:49:03.818Z,27.86
2023-05-22T16:54:05.849Z,27.82
2023-05-22T16:59:08.060Z,27.75
2023-05-22T17:04:14.950Z,27.65
2023-05-22T17:09:18.065Z,27.51
2023-05-22T17:14:23.576Z,27.37
2023-05-22T17:19:26.902Z,27.26
2023-05-22T17:24:30.172Z,27.15
2023-05-22T17:29:32.338Z,27.03
2023-05-22T17:34:34.907Z,26.94
2023-05-22T17:39:37.664Z,26.84
2023-05-22T17:44:39.781Z,26.74
2023-05-22T17:49:42.476Z,26.68
2023-05-22T17:54:45.080Z,26.59
2023-05-22T17:59:47.539Z,26.51
2023-05-22T18:04:50.324Z,26.43
2023-05-22T18:09:52.851Z,26.35
2023-05-22T18:14:55.173Z,26.28
2023-05-22T18:19:57.705Z,26.18
2023-05-22T18:25:00.468Z,26.06
2023-05-22T18:30:05.506Z,25.96
2023-05-22T18:35:09.005Z,25.87
2023-05-22T18:40:12.014Z,25.74
2023-05-22T18:45:14.753Z,25.66
2023-05-22T18:50:17.364Z,25.58
2023-05-22T18:55:19.817Z,25.49
2023-05-22T19:00:22.566Z,25.40
2023-05-22T19:05:25.224Z,25.32
2023-05-22T19:10:27.889Z,25.24
2023-05-22T19:15:29.803Z,25.14
2023-05-22T19:20:31.821Z,25.00
2023-05-22T19:25:33.823Z,24.86
2023-05-22T19:30:36.000Z,24.78
2023-05-22T19:35:38.776Z,24.70
2023-05-22T19:40:40.892Z,24.58
2023-05-22T19:45:43.210Z,24.47
2023-05-22T19:50:45.215Z,24.35
2023-05-22T19:55:47.680Z,24.27
2023-05-22T20:00:49.662Z,24.20
2023-05-22T20:05:53.630Z,24.11
2023-05-22T20:10:55.596Z,24.03
2023-05-22T20:15:57.545Z,23.93
2023-05-22T20:20:59.527Z,23.84
2023-05-22T20:26:01.516Z,23.73
2023-05-22T20:31:05.170Z,23.64
2023-05-22T20:36:07.368Z,23.59
2023-05-22T20:41:09.994Z,23.56
2023-05-22T20:46:12.549Z,23.51
2023-05-22T20:51:20.996Z,23.41
2023-05-22T20:56:22.913Z,23.34
2023-05-22T21:01:25.274Z,23.29
2023-05-22T21:06:27.325Z,23.22
2023-05-22T21:11:29.249Z,23.19
2023-05-22T21:16:31.196Z,23.04
2023-05-22T21:21:33.312Z,22.71
2023-05-22T21:26:35.611Z,22.66
2023-05-22T21:31:37.700Z,22.65
2023-05-22T21:36:39.645Z,22.63
2023-05-22T21:41:41.530Z,22.62
2023-05-22T21:46:43.418Z,22.58
2023-05-22T21:51:45.304Z,22.47
2023-05-22T21:56:47.572Z,22.41
2023-05-22T22:01:49.505Z,22.37
2023-05-22T22:06:51.391Z,22.30
2023-05-22T22:11:53.244Z,22.23
2023-05-22T22:16:55.221Z,21.86
2023-05-22T22:21:57.372Z,21.18
2023-05-22T22:26:59.275Z,20.90
2023-05-22T22:32:01.182Z,20.71
2023-05-22T22:37:03.089Z,20.85
2023-05-22T22:42:05.303Z,21.14
2023-05-22T22:47:07.689Z,21.36
2023-05-22T22:52:09.632Z,21.35
2023-05-22T22:57:11.506Z,21.41
2023-05-22T23:02:13.419Z,21.37
2023-05-22T23:07:15.309Z,21.15
2023-05-22T23:12:17.341Z,20.98
2023-05-22T23:17:19.236Z,21.10
2023-05-22T23:22:21.170Z,21.25
2023-05-22T23:27:23.048Z,21.23
2023-05-22T23:32:25.176Z,21.28
2023-05-22T23:37:27.070Z,21.31
2023-05-22T23:42:29.281Z,21.40
2023-05-22T23:47:31.781Z,21.43
2023-05-22T23:52:33.773Z,21.45
2023-05-22T23:57:36.190Z,21.50
